sensor_id;sensor_type;location;lat;lon;timestamp;P1;durP1;ratioP1;P2;durP2;ratioP2
50739;SDS011;36704;52.524;17.580;2023-09-30T00:01:22;18.92;;;15.00;;
50739;SDS011;36704;52.524;17.580;2023-09-30T00:04:08;20.67;;;14.23;;
50739;SDS011;36704;52.524;17.580;2023-09-30T00:06:55;16.70;;;12.38;;
50739;SDS011;36704;52.524;17.580;2023-09-30T00:09:41;19.58;;;13.38;;
50739;SDS011;36704;52.524;17.580;2023-09-30T00:12:27;16.27;;;12.05;;
50739;SDS011;36704;52.524;17.580;2023-09-30T00:15:14;17.20;;;13.02;;
50739;SDS011;36704;52.524;17.580;2023-09-30T00:18:00;17.98;;;12.38;;
50739;SDS011;36704;52.524;17.580;2023-09-30T00:20:47;16.17;;;11.93;;
50739;SDS011;36704;52.524;17.580;2023-09-30T00:23:33;16.15;;;11.88;;
50739;SDS011;36704;52.524;17.580;2023-09-30T00:26:19;14.40;;;11.75;;
50739;SDS011;36704;52.524;17.580;2023-09-30T00:29:05;18.33;;;12.10;;
50739;SDS011;36704;52.524;17.580;2023-09-30T00:31:51;14.20;;;11.60;;
50739;SDS011;36704;52.524;17.580;2023-09-30T00:34:37;16.48;;;11.80;;
50739;SDS011;36704;52.524;17.580;2023-09-30T00:37:22;16.05;;;11.60;;
50739;SDS011;36704;52.524;17.580;2023-09-30T00:40:08;17.33;;;12.48;;
50739;SDS011;36704;52.524;17.580;2023-09-30T00:42:57;15.70;;;12.32;;
50739;SDS011;36704;52.524;17.580;2023-09-30T00:45:44;16.85;;;13.40;;
50739;SDS011;36704;52.524;17.580;2023-09-30T00:48:30;14.48;;;10.80;;
50739;SDS011;36704;52.524;17.580;2023-09-30T00:51:17;15.82;;;10.82;;
50739;SDS011;36704;52.524;17.580;2023-09-30T00:54:03;16.50;;;11.30;;
50739;SDS011;36704;52.524;17.580;2023-09-30T00:56:50;13.20;;;10.73;;
50739;SDS011;36704;52.524;17.580;2023-09-30T00:59:36;15.13;;;10.88;;
50739;SDS011;36704;52.524;17.580;2023-09-30T01:02:22;13.80;;;10.68;;
50739;SDS011;36704;52.524;17.580;2023-09-30T01:05:08;14.52;;;10.55;;
50739;SDS011;36704;52.524;17.580;2023-09-30T01:07:55;13.70;;;10.95;;
50739;SDS011;36704;52.524;17.580;2023-09-30T01:10:41;11.77;;;10.30;;
50739;SDS011;36704;52.524;17.580;2023-09-30T01:13:33;11.13;;;9.32;;
50739;SDS011;36704;52.524;17.580;2023-09-30T01:16:20;13.63;;;9.20;;
50739;SDS011;36704;52.524;17.580;2023-09-30T01:19:06;11.23;;;9.60;;
50739;SDS011;36704;52.524;17.580;2023-09-30T01:21:53;14.30;;;10.10;;
50739;SDS011;36704;52.524;17.580;2023-09-30T01:24:41;23.77;;;10.52;;
50739;SDS011;36704;52.524;17.580;2023-09-30T01:27:27;12.82;;;9.18;;
50739;SDS011;36704;52.524;17.580;2023-09-30T01:30:14;11.73;;;9.65;;
50739;SDS011;36704;52.524;17.580;2023-09-30T01:33:01;13.38;;;10.25;;
50739;SDS011;36704;52.524;17.580;2023-09-30T01:35:47;14.55;;;10.57;;
50739;SDS011;36704;52.524;17.580;2023-09-30T01:38:32;9.70;;;8.68;;
50739;SDS011;36704;52.524;17.580;2023-09-30T01:41:19;13.30;;;9.35;;
50739;SDS011;36704;52.524;17.580;2023-09-30T01:44:05;12.68;;;9.07;;
50739;SDS011;36704;52.524;17.580;2023-09-30T01:46:52;14.48;;;9.95;;
50739;SDS011;36704;52.524;17.580;2023-09-30T01:49:37;11.60;;;9.88;;
50739;SDS011;36704;52.524;17.580;2023-09-30T01:52:24;14.48;;;9.85;;
50739;SDS011;36704;52.524;17.580;2023-09-30T01:55:09;11.45;;;9.80;;
50739;SDS011;36704;52.524;17.580;2023-09-30T01:57:56;11.57;;;9.77;;
50739;SDS011;36704;52.524;17.580;2023-09-30T02:00:42;11.30;;;9.27;;
50739;SDS011;36704;52.524;17.580;2023-09-30T02:03:28;11.15;;;8.27;;
50739;SDS011;36704;52.524;17.580;2023-09-30T02:06:15;14.45;;;10.40;;
50739;SDS011;36704;52.524;17.580;2023-09-30T02:09:02;12.30;;;10.25;;
50739;SDS011;36704;52.524;17.580;2023-09-30T02:11:50;10.88;;;9.27;;
50739;SDS011;36704;52.524;17.580;2023-09-30T02:14:37;12.20;;;9.93;;
50739;SDS011;36704;52.524;17.580;2023-09-30T02:17:24;12.48;;;9.63;;
50739;SDS011;36704;52.524;17.580;2023-09-30T02:20:11;12.07;;;9.73;;
50739;SDS011;36704;52.524;17.580;2023-09-30T02:23:01;13.70;;;9.73;;
50739;SDS011;36704;52.524;17.580;2023-09-30T02:25:48;14.85;;;9.65;;
50739;SDS011;36704;52.524;17.580;2023-09-30T02:28:34;12.95;;;9.20;;
50739;SDS011;36704;52.524;17.580;2023-09-30T02:31:20;12.52;;;9.48;;
50739;SDS011;36704;52.524;17.580;2023-09-30T02:34:06;13.63;;;9.23;;
50739;SDS011;36704;52.524;17.580;2023-09-30T02:36:53;11.00;;;9.50;;
50739;SDS011;36704;52.524;17.580;2023-09-30T02:39:41;12.13;;;10.00;;
50739;SDS011;36704;52.524;17.580;2023-09-30T02:42:27;12.23;;;9.40;;
50739;SDS011;36704;52.524;17.580;2023-09-30T02:45:13;10.48;;;9.32;;
50739;SDS011;36704;52.524;17.580;2023-09-30T02:48:00;12.02;;;9.07;;
50739;SDS011;36704;52.524;17.580;2023-09-30T02:50:46;12.50;;;8.60;;
50739;SDS011;36704;52.524;17.580;2023-09-30T02:53:31;12.32;;;9.73;;
50739;SDS011;36704;52.524;17.580;2023-09-30T02:56:17;12.35;;;10.07;;
50739;SDS011;36704;52.524;17.580;2023-09-30T02:59:05;15.27;;;9.88;;
50739;SDS011;36704;52.524;17.580;2023-09-30T03:01:52;11.73;;;9.52;;
50739;SDS011;36704;52.524;17.580;2023-09-30T03:04:39;13.07;;;9.82;;
50739;SDS011;36704;52.524;17.580;2023-09-30T03:07:25;13.45;;;10.63;;
50739;SDS011;36704;52.524;17.580;2023-09-30T03:10:11;12.02;;;9.07;;
50739;SDS011;36704;52.524;17.580;2023-09-30T03:12:59;15.25;;;10.32;;
50739;SDS011;36704;52.524;17.580;2023-09-30T03:15:49;14.25;;;10.60;;
50739;SDS011;36704;52.524;17.580;2023-09-30T03:18:35;14.38;;;11.13;;
50739;SDS011;36704;52.524;17.580;2023-09-30T03:21:22;15.52;;;11.30;;
50739;SDS011;36704;52.524;17.580;2023-09-30T03:24:08;13.45;;;10.85;;
50739;SDS011;36704;52.524;17.580;2023-09-30T03:26:54;15.32;;;10.40;;
50739;SDS011;36704;52.524;17.580;2023-09-30T03:29:39;15.57;;;11.52;;
50739;SDS011;36704;52.524;17.580;2023-09-30T03:32:26;11.82;;;10.52;;
50739;SDS011;36704;52.524;17.580;2023-09-30T03:35:12;15.48;;;12.18;;
50739;SDS011;36704;52.524;17.580;2023-09-30T03:38:04;16.25;;;12.90;;
50739;SDS011;36704;52.524;17.580;2023-09-30T03:40:50;13.95;;;10.40;;
50739;SDS011;36704;52.524;17.580;2023-09-30T03:43:36;14.38;;;11.65;;
50739;SDS011;36704;52.524;17.580;2023-09-30T03:49:12;15.82;;;11.77;;
50739;SDS011;36704;52.524;17.580;2023-09-30T03:51:58;13.90;;;12.20;;
50739;SDS011;36704;52.524;17.580;2023-09-30T03:54:44;16.65;;;12.48;;
50739;SDS011;36704;52.524;17.580;2023-09-30T03:57:31;14.00;;;11.65;;
50739;SDS011;36704;52.524;17.580;2023-09-30T04:00:19;14.50;;;11.90;;
50739;SDS011;36704;52.524;17.580;2023-09-30T04:03:06;16.25;;;12.43;;
50739;SDS011;36704;52.524;17.580;2023-09-30T04:05:53;14.32;;;11.88;;
50739;SDS011;36704;52.524;17.580;2023-09-30T04:08:39;14.85;;;11.85;;
50739;SDS011;36704;52.524;17.580;2023-09-30T04:11:25;15.50;;;12.02;;
50739;SDS011;36704;52.524;17.580;2023-09-30T04:14:12;17.05;;;12.20;;
50739;SDS011;36704;52.524;17.580;2023-09-30T04:16:58;16.90;;;11.20;;
50739;SDS011;36704;52.524;17.580;2023-09-30T04:19:44;14.55;;;10.32;;
50739;SDS011;36704;52.524;17.580;2023-09-30T04:22:31;15.25;;;11.10;;
50739;SDS011;36704;52.524;17.580;2023-09-30T04:25:18;12.15;;;9.70;;
50739;SDS011;36704;52.524;17.580;2023-09-30T04:28:04;15.50;;;10.52;;
50739;SDS011;36704;52.524;17.580;2023-09-30T04:30:50;12.30;;;10.50;;
50739;SDS011;36704;52.524;17.580;2023-09-30T04:33:37;14.98;;;9.52;;
50739;SDS011;36704;52.524;17.580;2023-09-30T04:36:23;11.48;;;8.57;;
50739;SDS011;36704;52.524;17.580;2023-09-30T04:39:09;11.00;;;8.07;;
50739;SDS011;36704;52.524;17.580;2023-09-30T04:41:58;9.35;;;6.32;;
50739;SDS011;36704;52.524;17.580;2023-09-30T04:44:46;8.23;;;4.70;;
50739;SDS011;36704;52.524;17.580;2023-09-30T04:47:32;6.72;;;4.30;;
50739;SDS011;36704;52.524;17.580;2023-09-30T04:50:19;7.50;;;4.38;;
50739;SDS011;36704;52.524;17.580;2023-09-30T04:53:08;7.13;;;3.67;;
50739;SDS011;36704;52.524;17.580;2023-09-30T04:55:54;8.82;;;3.90;;
50739;SDS011;36704;52.524;17.580;2023-09-30T04:58:40;5.00;;;2.60;;
50739;SDS011;36704;52.524;17.580;2023-09-30T05:01:26;5.90;;;2.55;;
50739;SDS011;36704;52.524;17.580;2023-09-30T05:04:13;8.43;;;3.40;;
50739;SDS011;36704;52.524;17.580;2023-09-30T05:06:59;6.07;;;4.05;;
50739;SDS011;36704;52.524;17.580;2023-09-30T05:09:45;7.18;;;3.03;;
50739;SDS011;36704;52.524;17.580;2023-09-30T05:12:31;5.38;;;2.63;;
50739;SDS011;36704;52.524;17.580;2023-09-30T05:15:20;7.05;;;2.50;;
50739;SDS011;36704;52.524;17.580;2023-09-30T05:18:07;5.05;;;2.55;;
50739;SDS011;36704;52.524;17.580;2023-09-30T05:20:55;5.25;;;2.50;;
50739;SDS011;36704;52.524;17.580;2023-09-30T05:23:42;4.70;;;2.47;;
50739;SDS011;36704;52.524;17.580;2023-09-30T05:26:27;3.92;;;2.20;;
50739;SDS011;36704;52.524;17.580;2023-09-30T05:29:13;5.75;;;2.13;;
50739;SDS011;36704;52.524;17.580;2023-09-30T05:31:59;6.97;;;2.00;;
50739;SDS011;36704;52.524;17.580;2023-09-30T05:34:45;6.40;;;2.20;;
50739;SDS011;36704;52.524;17.580;2023-09-30T05:37:31;6.22;;;2.10;;
50739;SDS011;36704;52.524;17.580;2023-09-30T05:40:17;8.23;;;2.28;;
50739;SDS011;36704;52.524;17.580;2023-09-30T05:43:12;9.13;;;2.53;;
50739;SDS011;36704;52.524;17.580;2023-09-30T05:46:01;8.23;;;2.35;;
50739;SDS011;36704;52.524;17.580;2023-09-30T05:48:48;7.43;;;2.40;;
50739;SDS011;36704;52.524;17.580;2023-09-30T05:51:34;7.43;;;2.45;;
50739;SDS011;36704;52.524;17.580;2023-09-30T05:54:20;8.50;;;2.30;;
50739;SDS011;36704;52.524;17.580;2023-09-30T05:57:05;9.13;;;2.15;;
50739;SDS011;36704;52.524;17.580;2023-09-30T05:59:52;6.88;;;2.38;;
50739;SDS011;36704;52.524;17.580;2023-09-30T06:02:38;7.25;;;2.50;;
50739;SDS011;36704;52.524;17.580;2023-09-30T06:05:25;8.13;;;2.42;;
50739;SDS011;36704;52.524;17.580;2023-09-30T06:08:16;8.52;;;2.38;;
50739;SDS011;36704;52.524;17.580;2023-09-30T06:11:03;7.07;;;2.40;;
50739;SDS011;36704;52.524;17.580;2023-09-30T06:13:49;8.02;;;2.50;;
50739;SDS011;36704;52.524;17.580;2023-09-30T06:16:41;8.68;;;2.97;;
50739;SDS011;36704;52.524;17.580;2023-09-30T06:19:26;9.20;;;3.38;;
50739;SDS011;36704;52.524;17.580;2023-09-30T06:22:12;10.32;;;2.90;;
50739;SDS011;36704;52.524;17.580;2023-09-30T06:25:00;10.85;;;2.67;;
50739;SDS011;36704;52.524;17.580;2023-09-30T06:27:51;5.45;;;2.90;;
50739;SDS011;36704;52.524;17.580;2023-09-30T06:30:37;9.82;;;3.33;;
50739;SDS011;36704;52.524;17.580;2023-09-30T06:33:27;5.88;;;2.55;;
50739;SDS011;36704;52.524;17.580;2023-09-30T06:36:15;6.30;;;2.60;;
50739;SDS011;36704;52.524;17.580;2023-09-30T06:39:02;8.90;;;2.78;;
50739;SDS011;36704;52.524;17.580;2023-09-30T06:44:46;11.30;;;2.88;;
50739;SDS011;36704;52.524;17.580;2023-09-30T06:47:35;8.82;;;2.90;;
50739;SDS011;36704;52.524;17.580;2023-09-30T06:50:22;7.68;;;3.00;;
50739;SDS011;36704;52.524;17.580;2023-09-30T06:53:08;7.20;;;2.78;;
50739;SDS011;36704;52.524;17.580;2023-09-30T06:55:55;9.45;;;2.70;;
50739;SDS011;36704;52.524;17.580;2023-09-30T06:58:41;7.95;;;2.75;;
50739;SDS011;36704;52.524;17.580;2023-09-30T07:01:27;8.05;;;2.47;;
50739;SDS011;36704;52.524;17.580;2023-09-30T07:04:13;8.60;;;2.78;;
50739;SDS011;36704;52.524;17.580;2023-09-30T07:06:59;10.63;;;3.45;;
50739;SDS011;36704;52.524;17.580;2023-09-30T07:09:46;9.23;;;2.85;;
50739;SDS011;36704;52.524;17.580;2023-09-30T07:12:32;11.50;;;3.47;;
50739;SDS011;36704;52.524;17.580;2023-09-30T07:15:28;9.00;;;3.00;;
50739;SDS011;36704;52.524;17.580;2023-09-30T07:18:16;6.90;;;2.70;;
50739;SDS011;36704;52.524;17.580;2023-09-30T07:21:05;8.05;;;2.88;;
50739;SDS011;36704;52.524;17.580;2023-09-30T07:23:51;10.10;;;3.03;;
50739;SDS011;36704;52.524;17.580;2023-09-30T07:26:37;10.80;;;2.90;;
50739;SDS011;36704;52.524;17.580;2023-09-30T07:29:24;8.82;;;3.60;;
50739;SDS011;36704;52.524;17.580;2023-09-30T07:32:10;10.82;;;3.00;;
50739;SDS011;36704;52.524;17.580;2023-09-30T07:34:55;14.48;;;3.47;;
50739;SDS011;36704;52.524;17.580;2023-09-30T07:37:42;11.10;;;3.10;;
50739;SDS011;36704;52.524;17.580;2023-09-30T07:40:29;7.85;;;2.80;;
50739;SDS011;36704;52.524;17.580;2023-09-30T07:43:19;10.95;;;2.97;;
50739;SDS011;36704;52.524;17.580;2023-09-30T07:46:08;8.95;;;2.92;;
50739;SDS011;36704;52.524;17.580;2023-09-30T07:48:54;6.95;;;2.42;;
50739;SDS011;36704;52.524;17.580;2023-09-30T07:51:47;12.55;;;3.05;;
50739;SDS011;36704;52.524;17.580;2023-09-30T07:54:34;11.73;;;2.97;;
50739;SDS011;36704;52.524;17.580;2023-09-30T07:57:20;9.45;;;2.90;;
50739;SDS011;36704;52.524;17.580;2023-09-30T08:00:07;12.40;;;3.45;;
50739;SDS011;36704;52.524;17.580;2023-09-30T08:02:55;12.98;;;3.30;;
50739;SDS011;36704;52.524;17.580;2023-09-30T08:05:41;11.90;;;3.25;;
50739;SDS011;36704;52.524;17.580;2023-09-30T08:08:27;8.65;;;3.03;;
50739;SDS011;36704;52.524;17.580;2023-09-30T08:11:15;8.93;;;3.05;;
50739;SDS011;36704;52.524;17.580;2023-09-30T08:14:03;8.15;;;2.90;;
50739;SDS011;36704;52.524;17.580;2023-09-30T08:16:52;8.25;;;3.00;;
50739;SDS011;36704;52.524;17.580;2023-09-30T08:19:38;9.48;;;2.75;;
50739;SDS011;36704;52.524;17.580;2023-09-30T08:22:25;14.60;;;3.50;;
50739;SDS011;36704;52.524;17.580;2023-09-30T08:25:14;9.80;;;2.80;;
50739;SDS011;36704;52.524;17.580;2023-09-30T08:28:00;10.30;;;3.17;;
50739;SDS011;36704;52.524;17.580;2023-09-30T08:30:46;11.05;;;3.72;;
50739;SDS011;36704;52.524;17.580;2023-09-30T08:33:32;8.15;;;2.90;;
50739;SDS011;36704;52.524;17.580;2023-09-30T08:36:18;9.73;;;3.13;;
50739;SDS011;36704;52.524;17.580;2023-09-30T08:39:05;10.70;;;3.33;;
50739;SDS011;36704;52.524;17.580;2023-09-30T08:41:52;13.32;;;3.38;;
50739;SDS011;36704;52.524;17.580;2023-09-30T08:44:39;8.82;;;2.95;;
50739;SDS011;36704;52.524;17.580;2023-09-30T08:47:26;8.60;;;2.90;;
50739;SDS011;36704;52.524;17.580;2023-09-30T08:50:13;10.52;;;3.35;;
50739;SDS011;36704;52.524;17.580;2023-09-30T08:52:59;14.57;;;3.45;;
50739;SDS011;36704;52.524;17.580;2023-09-30T08:55:46;10.48;;;2.95;;
50739;SDS011;36704;52.524;17.580;2023-09-30T08:58:32;10.85;;;3.40;;
50739;SDS011;36704;52.524;17.580;2023-09-30T09:01:18;11.48;;;3.17;;
50739;SDS011;36704;52.524;17.580;2023-09-30T09:04:05;8.27;;;3.08;;
50739;SDS011;36704;52.524;17.580;2023-09-30T09:06:53;9.88;;;3.05;;
50739;SDS011;36704;52.524;17.580;2023-09-30T09:09:41;8.38;;;3.00;;
50739;SDS011;36704;52.524;17.580;2023-09-30T09:12:28;10.52;;;3.50;;
50739;SDS011;36704;52.524;17.580;2023-09-30T09:15:21;11.23;;;3.00;;
50739;SDS011;36704;52.524;17.580;2023-09-30T09:18:09;6.57;;;2.95;;
50739;SDS011;36704;52.524;17.580;2023-09-30T09:23:57;12.23;;;3.75;;
50739;SDS011;36704;52.524;17.580;2023-09-30T09:26:43;11.95;;;3.85;;
50739;SDS011;36704;52.524;17.580;2023-09-30T09:29:29;7.82;;;3.33;;
50739;SDS011;36704;52.524;17.580;2023-09-30T09:32:16;11.80;;;3.75;;
50739;SDS011;36704;52.524;17.580;2023-09-30T09:35:02;13.40;;;3.83;;
50739;SDS011;36704;52.524;17.580;2023-09-30T09:38:07;14.88;;;4.13;;
50739;SDS011;36704;52.524;17.580;2023-09-30T09:40:58;9.88;;;4.00;;
50739;SDS011;36704;52.524;17.580;2023-09-30T09:43:45;12.07;;;3.92;;
50739;SDS011;36704;52.524;17.580;2023-09-30T09:46:35;13.23;;;4.20;;
50739;SDS011;36704;52.524;17.580;2023-09-30T09:49:21;7.43;;;3.50;;
50739;SDS011;36704;52.524;17.580;2023-09-30T09:52:07;10.13;;;3.80;;
50739;SDS011;36704;52.524;17.580;2023-09-30T09:54:54;13.57;;;3.45;;
50739;SDS011;36704;52.524;17.580;2023-09-30T09:57:41;11.48;;;3.67;;
50739;SDS011;36704;52.524;17.580;2023-09-30T10:00:27;9.35;;;3.83;;
50739;SDS011;36704;52.524;17.580;2023-09-30T10:03:15;10.50;;;4.07;;
50739;SDS011;36704;52.524;17.580;2023-09-30T10:06:02;11.30;;;3.80;;
50739;SDS011;36704;52.524;17.580;2023-09-30T10:08:48;10.30;;;3.63;;
50739;SDS011;36704;52.524;17.580;2023-09-30T10:11:39;8.02;;;3.40;;
50739;SDS011;36704;52.524;17.580;2023-09-30T10:14:32;10.93;;;3.67;;
50739;SDS011;36704;52.524;17.580;2023-09-30T10:17:19;13.50;;;3.30;;
50739;SDS011;36704;52.524;17.580;2023-09-30T10:20:05;10.75;;;3.28;;
50739;SDS011;36704;52.524;17.580;2023-09-30T10:23:17;10.80;;;3.20;;
50739;SDS011;36704;52.524;17.580;2023-09-30T10:29:01;9.93;;;3.28;;
50739;SDS011;36704;52.524;17.580;2023-09-30T10:31:55;10.77;;;3.00;;
50739;SDS011;36704;52.524;17.580;2023-09-30T10:53:58;8.25;;;2.60;;
50739;SDS011;36704;52.524;17.580;2023-09-30T10:56:45;7.32;;;2.40;;
50739;SDS011;36704;52.524;17.580;2023-09-30T10:59:32;7.63;;;2.55;;
50739;SDS011;36704;52.524;17.580;2023-09-30T11:02:21;7.38;;;2.97;;
50739;SDS011;36704;52.524;17.580;2023-09-30T11:05:08;7.30;;;2.38;;
50739;SDS011;36704;52.524;17.580;2023-09-30T11:07:56;10.70;;;3.17;;
50739;SDS011;36704;52.524;17.580;2023-09-30T11:10:48;8.55;;;2.83;;
50739;SDS011;36704;52.524;17.580;2023-09-30T11:13:42;8.15;;;3.13;;
50739;SDS011;36704;52.524;17.580;2023-09-30T11:16:28;7.20;;;2.60;;
50739;SDS011;36704;52.524;17.580;2023-09-30T11:19:14;9.35;;;2.90;;
50739;SDS011;36704;52.524;17.580;2023-09-30T11:22:01;8.45;;;2.83;;
50739;SDS011;36704;52.524;17.580;2023-09-30T11:24:47;11.05;;;2.63;;
50739;SDS011;36704;52.524;17.580;2023-09-30T11:27:34;8.93;;;2.67;;
50739;SDS011;36704;52.524;17.580;2023-09-30T11:30:20;9.10;;;2.90;;
50739;SDS011;36704;52.524;17.580;2023-09-30T11:33:06;6.15;;;2.53;;
50739;SDS011;36704;52.524;17.580;2023-09-30T11:35:58;9.55;;;3.10;;
50739;SDS011;36704;52.524;17.580;2023-09-30T11:38:47;7.22;;;2.50;;
50739;SDS011;36704;52.524;17.580;2023-09-30T11:41:35;11.13;;;2.50;;
50739;SDS011;36704;52.524;17.580;2023-09-30T11:44:25;5.45;;;2.35;;
50739;SDS011;36704;52.524;17.580;2023-09-30T11:47:12;9.07;;;2.88;;
50739;SDS011;36704;52.524;17.580;2023-09-30T11:50:01;10.98;;;2.83;;
50739;SDS011;36704;52.524;17.580;2023-09-30T11:52:47;9.40;;;3.15;;
50739;SDS011;36704;52.524;17.580;2023-09-30T11:55:33;6.20;;;2.45;;
50739;SDS011;36704;52.524;17.580;2023-09-30T11:58:19;11.93;;;2.65;;
50739;SDS011;36704;52.524;17.580;2023-09-30T12:01:05;10.30;;;2.45;;
50739;SDS011;36704;52.524;17.580;2023-09-30T12:03:52;6.13;;;2.42;;
50739;SDS011;36704;52.524;17.580;2023-09-30T12:06:43;9.30;;;2.90;;
50739;SDS011;36704;52.524;17.580;2023-09-30T12:09:29;7.00;;;2.20;;
50739;SDS011;36704;52.524;17.580;2023-09-30T12:12:16;8.90;;;2.45;;
50739;SDS011;36704;52.524;17.580;2023-09-30T12:15:03;9.57;;;2.75;;
50739;SDS011;36704;52.524;17.580;2023-09-30T12:17:49;8.63;;;2.85;;
50739;SDS011;36704;52.524;17.580;2023-09-30T12:20:36;7.05;;;2.10;;
50739;SDS011;36704;52.524;17.580;2023-09-30T12:23:22;9.15;;;2.50;;
50739;SDS011;36704;52.524;17.580;2023-09-30T12:26:13;9.02;;;2.28;;
50739;SDS011;36704;52.524;17.580;2023-09-30T12:29:04;8.70;;;2.40;;
50739;SDS011;36704;52.524;17.580;2023-09-30T12:31:51;9.32;;;2.50;;
50739;SDS011;36704;52.524;17.580;2023-09-30T12:34:40;6.70;;;2.47;;
50739;SDS011;36704;52.524;17.580;2023-09-30T12:37:26;11.75;;;3.13;;
50739;SDS011;36704;52.524;17.580;2023-09-30T12:40:11;7.13;;;2.40;;
50739;SDS011;36704;52.524;17.580;2023-09-30T12:42:59;8.15;;;2.40;;
50739;SDS011;36704;52.524;17.580;2023-09-30T12:45:46;6.70;;;2.25;;
50739;SDS011;36704;52.524;17.580;2023-09-30T12:48:32;8.25;;;2.47;;
50739;SDS011;36704;52.524;17.580;2023-09-30T12:51:19;9.90;;;2.75;;
50739;SDS011;36704;52.524;17.580;2023-09-30T12:54:05;9.73;;;2.90;;
50739;SDS011;36704;52.524;17.580;2023-09-30T12:56:51;9.82;;;2.53;;
50739;SDS011;36704;52.524;17.580;2023-09-30T12:59:37;9.57;;;2.80;;
50739;SDS011;36704;52.524;17.580;2023-09-30T13:02:23;8.23;;;2.60;;
50739;SDS011;36704;52.524;17.580;2023-09-30T13:05:09;8.13;;;1.92;;
50739;SDS011;36704;52.524;17.580;2023-09-30T13:07:55;11.43;;;2.75;;
50739;SDS011;36704;52.524;17.580;2023-09-30T13:10:42;7.75;;;2.40;;
50739;SDS011;36704;52.524;17.580;2023-09-30T13:13:31;7.35;;;2.15;;
50739;SDS011;36704;52.524;17.580;2023-09-30T13:16:23;6.78;;;2.78;;
50739;SDS011;36704;52.524;17.580;2023-09-30T13:19:09;8.07;;;2.50;;
50739;SDS011;36704;52.524;17.580;2023-09-30T13:21:56;8.63;;;2.47;;
50739;SDS011;36704;52.524;17.580;2023-09-30T13:24:43;6.47;;;2.55;;
50739;SDS011;36704;52.524;17.580;2023-09-30T13:27:29;10.50;;;2.67;;
50739;SDS011;36704;52.524;17.580;2023-09-30T13:30:15;9.32;;;2.72;;
50739;SDS011;36704;52.524;17.580;2023-09-30T13:33:03;10.05;;;3.50;;
50739;SDS011;36704;52.524;17.580;2023-09-30T13:35:49;7.35;;;2.53;;
50739;SDS011;36704;52.524;17.580;2023-09-30T13:38:35;6.75;;;2.28;;
50739;SDS011;36704;52.524;17.580;2023-09-30T13:41:21;8.05;;;2.42;;
50739;SDS011;36704;52.524;17.580;2023-09-30T13:44:07;6.95;;;2.15;;
50739;SDS011;36704;52.524;17.580;2023-09-30T13:46:53;7.53;;;2.50;;
50739;SDS011;36704;52.524;17.580;2023-09-30T13:49:39;7.47;;;2.53;;
50739;SDS011;36704;52.524;17.580;2023-09-30T13:52:25;7.70;;;2.30;;
50739;SDS011;36704;52.524;17.580;2023-09-30T13:55:11;6.05;;;2.17;;
50739;SDS011;36704;52.524;17.580;2023-09-30T13:57:58;8.43;;;2.78;;
50739;SDS011;36704;52.524;17.580;2023-09-30T14:00:47;10.05;;;2.78;;
50739;SDS011;36704;52.524;17.580;2023-09-30T14:03:34;7.30;;;3.03;;
50739;SDS011;36704;52.524;17.580;2023-09-30T14:06:19;7.55;;;2.40;;
50739;SDS011;36704;52.524;17.580;2023-09-30T14:09:05;7.18;;;2.78;;
50739;SDS011;36704;52.524;17.580;2023-09-30T14:11:54;7.95;;;2.83;;
50739;SDS011;36704;52.524;17.580;2023-09-30T14:14:40;8.63;;;2.30;;
50739;SDS011;36704;52.524;17.580;2023-09-30T14:17:26;7.93;;;2.40;;
50739;SDS011;36704;52.524;17.580;2023-09-30T14:20:15;7.47;;;2.85;;
50739;SDS011;36704;52.524;17.580;2023-09-30T14:23:00;7.28;;;2.70;;
50739;SDS011;36704;52.524;17.580;2023-09-30T14:25:47;6.78;;;2.60;;
50739;SDS011;36704;52.524;17.580;2023-09-30T14:28:33;10.13;;;3.00;;
50739;SDS011;36704;52.524;17.580;2023-09-30T14:31:19;10.27;;;2.90;;
50739;SDS011;36704;52.524;17.580;2023-09-30T14:34:05;8.55;;;2.70;;
50739;SDS011;36704;52.524;17.580;2023-09-30T14:36:52;7.40;;;2.85;;
50739;SDS011;36704;52.524;17.580;2023-09-30T14:39:37;7.90;;;3.20;;
50739;SDS011;36704;52.524;17.580;2023-09-30T14:42:24;6.32;;;2.28;;
50739;SDS011;36704;52.524;17.580;2023-09-30T14:45:10;8.70;;;2.95;;
50739;SDS011;36704;52.524;17.580;2023-09-30T14:47:56;10.10;;;2.85;;
50739;SDS011;36704;52.524;17.580;2023-09-30T14:50:49;10.85;;;2.38;;
50739;SDS011;36704;52.524;17.580;2023-09-30T14:53:38;6.90;;;2.88;;
50739;SDS011;36704;52.524;17.580;2023-09-30T14:56:24;7.43;;;2.67;;
50739;SDS011;36704;52.524;17.580;2023-09-30T14:59:10;7.15;;;2.63;;
50739;SDS011;36704;52.524;17.580;2023-09-30T15:01:56;7.25;;;2.50;;
50739;SDS011;36704;52.524;17.580;2023-09-30T15:04:42;8.07;;;2.42;;
50739;SDS011;36704;52.524;17.580;2023-09-30T15:07:28;6.63;;;2.15;;
50739;SDS011;36704;52.524;17.580;2023-09-30T15:10:14;7.00;;;2.05;;
50739;SDS011;36704;52.524;17.580;2023-09-30T15:13:00;8.43;;;2.67;;
50739;SDS011;36704;52.524;17.580;2023-09-30T15:15:47;8.40;;;2.50;;
50739;SDS011;36704;52.524;17.580;2023-09-30T15:18:32;8.27;;;2.55;;
50739;SDS011;36704;52.524;17.580;2023-09-30T15:21:18;11.40;;;5.35;;
50739;SDS011;36704;52.524;17.580;2023-09-30T15:24:05;10.73;;;5.30;;
50739;SDS011;36704;52.524;17.580;2023-09-30T15:26:52;8.00;;;3.10;;
50739;SDS011;36704;52.524;17.580;2023-09-30T15:29:38;10.38;;;3.30;;
50739;SDS011;36704;52.524;17.580;2023-09-30T15:32:28;9.82;;;3.83;;
50739;SDS011;36704;52.524;17.580;2023-09-30T15:38:26;6.47;;;2.65;;
50739;SDS011;36704;52.524;17.580;2023-09-30T15:41:11;6.90;;;2.80;;
50739;SDS011;36704;52.524;17.580;2023-09-30T15:43:58;8.48;;;2.88;;
50739;SDS011;36704;52.524;17.580;2023-09-30T15:46:47;9.32;;;3.08;;
50739;SDS011;36704;52.524;17.580;2023-09-30T15:49:35;9.40;;;3.80;;
50739;SDS011;36704;52.524;17.580;2023-09-30T15:52:20;10.13;;;4.68;;
50739;SDS011;36704;52.524;17.580;2023-09-30T15:55:09;9.95;;;5.20;;
50739;SDS011;36704;52.524;17.580;2023-09-30T15:57:59;10.43;;;3.28;;
50739;SDS011;36704;52.524;17.580;2023-09-30T16:00:45;8.88;;;3.72;;
50739;SDS011;36704;52.524;17.580;2023-09-30T16:08:42;10.50;;;3.97;;
50739;SDS011;36704;52.524;17.580;2023-09-30T16:11:28;7.40;;;3.22;;
50739;SDS011;36704;52.524;17.580;2023-09-30T16:14:15;8.77;;;3.20;;
50739;SDS011;36704;52.524;17.580;2023-09-30T16:17:02;7.95;;;2.22;;
50739;SDS011;36704;52.524;17.580;2023-09-30T16:19:54;8.10;;;2.80;;
50739;SDS011;36704;52.524;17.580;2023-09-30T16:22:40;8.43;;;3.53;;
50739;SDS011;36704;52.524;17.580;2023-09-30T16:25:30;6.25;;;2.83;;
50739;SDS011;36704;52.524;17.580;2023-09-30T16:28:15;11.50;;;3.22;;
50739;SDS011;36704;52.524;17.580;2023-09-30T16:31:03;11.85;;;3.83;;
50739;SDS011;36704;52.524;17.580;2023-09-30T16:33:49;9.95;;;3.30;;
50739;SDS011;36704;52.524;17.580;2023-09-30T16:36:35;8.45;;;3.38;;
50739;SDS011;36704;52.524;17.580;2023-09-30T16:39:23;10.93;;;3.20;;
50739;SDS011;36704;52.524;17.580;2023-09-30T16:42:09;9.55;;;3.60;;
50739;SDS011;36704;52.524;17.580;2023-09-30T16:44:55;9.35;;;3.65;;
50739;SDS011;36704;52.524;17.580;2023-09-30T16:47:45;10.05;;;3.28;;
50739;SDS011;36704;52.524;17.580;2023-09-30T16:50:36;12.30;;;3.70;;
50739;SDS011;36704;52.524;17.580;2023-09-30T16:53:23;11.00;;;3.45;;
50739;SDS011;36704;52.524;17.580;2023-09-30T16:56:10;8.38;;;3.13;;
50739;SDS011;36704;52.524;17.580;2023-09-30T16:58:57;14.05;;;4.15;;
50739;SDS011;36704;52.524;17.580;2023-09-30T17:01:42;11.10;;;3.60;;